sensor_id;sensor_type;location;lat;lon;timestamp;P1;durP1;ratioP1;P2;durP2;ratioP2
51686;SDS011;37774;52.192;4.584;2022-11-15T00:02:15;105.57;;;28.77;;
51686;SDS011;37774;52.192;4.584;2022-11-15T00:04:43;84.97;;;26.85;;
51686;SDS011;37774;52.192;4.584;2022-11-15T00:07:09;100.70;;;27.38;;
51686;SDS011;37774;52.192;4.584;2022-11-15T00:09:36;81.68;;;27.38;;
51686;SDS011;37774;52.192;4.584;2022-11-15T00:12:02;101.22;;;26.48;;
51686;SDS011;37774;52.192;4.584;2022-11-15T00:14:29;95.10;;;27.48;;
51686;SDS011;37774;52.192;4.584;2022-11-15T00:16:56;101.90;;;27.52;;
51686;SDS011;37774;52.192;4.584;2022-11-15T00:19:22;100.85;;;28.98;;
51686;SDS011;37774;52.192;4.584;2022-11-15T00:21:50;100.80;;;27.88;;
51686;SDS011;37774;52.192;4.584;2022-11-15T00:24:17;111.20;;;25.63;;
51686;SDS011;37774;52.192;4.584;2022-11-15T00:26:43;97.05;;;27.27;;
51686;SDS011;37774;52.192;4.584;2022-11-15T00:29:10;94.82;;;29.42;;
51686;SDS011;37774;52.192;4.584;2022-11-15T00:31:36;93.93;;;26.45;;
51686;SDS011;37774;52.192;4.584;2022-11-15T00:34:03;92.50;;;24.55;;
51686;SDS011;37774;52.192;4.584;2022-11-15T00:36:32;96.72;;;27.60;;
51686;SDS011;37774;52.192;4.584;2022-11-15T00:39:00;95.90;;;26.92;;
51686;SDS011;37774;52.192;4.584;2022-11-15T00:41:27;98.65;;;26.83;;
51686;SDS011;37774;52.192;4.584;2022-11-15T00:43:53;95.32;;;24.80;;
51686;SDS011;37774;52.192;4.584;2022-11-15T00:46:20;92.82;;;24.08;;
51686;SDS011;37774;52.192;4.584;2022-11-15T00:48:46;94.68;;;25.92;;
51686;SDS011;37774;52.192;4.584;2022-11-15T00:51:13;83.55;;;24.73;;
51686;SDS011;37774;52.192;4.584;2022-11-15T00:53:39;99.65;;;26.65;;
51686;SDS011;37774;52.192;4.584;2022-11-15T00:56:07;99.30;;;26.05;;
51686;SDS011;37774;52.192;4.584;2022-11-15T00:58:34;87.78;;;26.73;;
51686;SDS011;37774;52.192;4.584;2022-11-15T01:01:07;86.18;;;24.90;;
51686;SDS011;37774;52.192;4.584;2022-11-15T01:03:34;81.75;;;23.27;;
51686;SDS011;37774;52.192;4.584;2022-11-15T01:06:00;95.22;;;25.65;;
51686;SDS011;37774;52.192;4.584;2022-11-15T01:08:27;80.38;;;24.40;;
51686;SDS011;37774;52.192;4.584;2022-11-15T01:10:53;85.90;;;26.02;;
51686;SDS011;37774;52.192;4.584;2022-11-15T01:13:22;94.78;;;24.45;;
51686;SDS011;37774;52.192;4.584;2022-11-15T01:15:48;90.25;;;24.55;;
51686;SDS011;37774;52.192;4.584;2022-11-15T01:18:15;110.82;;;27.33;;
51686;SDS011;37774;52.192;4.584;2022-11-15T01:20:42;93.55;;;26.20;;
51686;SDS011;37774;52.192;4.584;2022-11-15T01:23:08;82.72;;;24.95;;
51686;SDS011;37774;52.192;4.584;2022-11-15T01:25:35;103.63;;;24.00;;
51686;SDS011;37774;52.192;4.584;2022-11-15T01:28:01;89.95;;;24.73;;
51686;SDS011;37774;52.192;4.584;2022-11-15T01:30:29;130.40;;;29.38;;
51686;SDS011;37774;52.192;4.584;2022-11-15T01:32:56;86.07;;;25.70;;
51686;SDS011;37774;52.192;4.584;2022-11-15T01:35:22;99.20;;;26.88;;
51686;SDS011;37774;52.192;4.584;2022-11-15T01:37:49;95.95;;;24.67;;
51686;SDS011;37774;52.192;4.584;2022-11-15T01:40:15;83.95;;;25.58;;
51686;SDS011;37774;52.192;4.584;2022-11-15T01:42:42;109.47;;;27.42;;
51686;SDS011;37774;52.192;4.584;2022-11-15T01:45:10;87.05;;;25.23;;
51686;SDS011;37774;52.192;4.584;2022-11-15T01:47:41;95.95;;;25.80;;
51686;SDS011;37774;52.192;4.584;2022-11-15T01:50:09;90.75;;;26.95;;
51686;SDS011;37774;52.192;4.584;2022-11-15T01:52:36;99.20;;;27.55;;
51686;SDS011;37774;52.192;4.584;2022-11-15T01:55:05;101.10;;;26.50;;
51686;SDS011;37774;52.192;4.584;2022-11-15T01:57:34;107.15;;;30.58;;
51686;SDS011;37774;52.192;4.584;2022-11-15T02:00:00;100.03;;;28.05;;
51686;SDS011;37774;52.192;4.584;2022-11-15T02:02:28;117.68;;;27.55;;
51686;SDS011;37774;52.192;4.584;2022-11-15T02:04:56;105.97;;;27.40;;
51686;SDS011;37774;52.192;4.584;2022-11-15T02:07:22;107.35;;;27.60;;
51686;SDS011;37774;52.192;4.584;2022-11-15T02:09:49;110.22;;;29.60;;
51686;SDS011;37774;52.192;4.584;2022-11-15T02:12:16;105.70;;;27.30;;
51686;SDS011;37774;52.192;4.584;2022-11-15T02:14:46;113.35;;;29.08;;
51686;SDS011;37774;52.192;4.584;2022-11-15T02:17:18;117.18;;;30.10;;
51686;SDS011;37774;52.192;4.584;2022-11-15T02:20:01;103.53;;;27.10;;
51686;SDS011;37774;52.192;4.584;2022-11-15T02:22:37;114.10;;;28.35;;
51686;SDS011;37774;52.192;4.584;2022-11-15T02:25:14;118.35;;;28.52;;
51686;SDS011;37774;52.192;4.584;2022-11-15T02:30:47;120.78;;;30.45;;
51686;SDS011;37774;52.192;4.584;2022-11-15T02:33:20;119.30;;;29.25;;
51686;SDS011;37774;52.192;4.584;2022-11-15T02:35:51;103.90;;;31.38;;
51686;SDS011;37774;52.192;4.584;2022-11-15T02:38:21;108.13;;;28.80;;
51686;SDS011;37774;52.192;4.584;2022-11-15T02:40:50;127.05;;;32.13;;
51686;SDS011;37774;52.192;4.584;2022-11-15T02:43:19;116.60;;;29.17;;
51686;SDS011;37774;52.192;4.584;2022-11-15T02:46:08;124.78;;;31.08;;
51686;SDS011;37774;52.192;4.584;2022-11-15T02:48:36;119.13;;;31.15;;
51686;SDS011;37774;52.192;4.584;2022-11-15T02:51:03;134.43;;;31.90;;
51686;SDS011;37774;52.192;4.584;2022-11-15T02:53:30;129.18;;;34.08;;
51686;SDS011;37774;52.192;4.584;2022-11-15T02:55:56;112.40;;;27.58;;
51686;SDS011;37774;52.192;4.584;2022-11-15T02:58:41;123.45;;;31.52;;
51686;SDS011;37774;52.192;4.584;2022-11-15T03:01:15;120.10;;;29.35;;
51686;SDS011;37774;52.192;4.584;2022-11-15T03:03:48;117.95;;;32.33;;
51686;SDS011;37774;52.192;4.584;2022-11-15T03:06:21;152.15;;;32.63;;
51686;SDS011;37774;52.192;4.584;2022-11-15T03:08:52;141.68;;;32.78;;
51686;SDS011;37774;52.192;4.584;2022-11-15T03:11:22;117.32;;;29.27;;
51686;SDS011;37774;52.192;4.584;2022-11-15T03:13:52;119.50;;;32.22;;
51686;SDS011;37774;52.192;4.584;2022-11-15T03:16:24;122.95;;;33.70;;
51686;SDS011;37774;52.192;4.584;2022-11-15T03:18:52;108.13;;;30.27;;
51686;SDS011;37774;52.192;4.584;2022-11-15T03:21:20;139.85;;;33.10;;
51686;SDS011;37774;52.192;4.584;2022-11-15T03:23:48;125.25;;;31.67;;
51686;SDS011;37774;52.192;4.584;2022-11-15T03:26:15;103.30;;;28.20;;
51686;SDS011;37774;52.192;4.584;2022-11-15T03:28:43;125.75;;;30.08;;
51686;SDS011;37774;52.192;4.584;2022-11-15T03:31:13;126.32;;;31.27;;
51686;SDS011;37774;52.192;4.584;2022-11-15T03:33:59;132.30;;;32.33;;
51686;SDS011;37774;52.192;4.584;2022-11-15T03:36:28;133.88;;;34.40;;
51686;SDS011;37774;52.192;4.584;2022-11-15T03:38:58;96.13;;;30.05;;
51686;SDS011;37774;52.192;4.584;2022-11-15T03:41:28;109.55;;;28.83;;
51686;SDS011;37774;52.192;4.584;2022-11-15T03:43:56;89.25;;;27.45;;
51686;SDS011;37774;52.192;4.584;2022-11-15T03:46:27;112.50;;;29.20;;
51686;SDS011;37774;52.192;4.584;2022-11-15T03:48:56;100.32;;;29.63;;
51686;SDS011;37774;52.192;4.584;2022-11-15T03:51:25;105.55;;;28.00;;
51686;SDS011;37774;52.192;4.584;2022-11-15T03:53:52;97.78;;;28.75;;
51686;SDS011;37774;52.192;4.584;2022-11-15T03:56:18;92.93;;;28.80;;
51686;SDS011;37774;52.192;4.584;2022-11-15T03:58:45;103.70;;;30.88;;
51686;SDS011;37774;52.192;4.584;2022-11-15T04:01:12;110.60;;;30.27;;
51686;SDS011;37774;52.192;4.584;2022-11-15T04:03:38;90.22;;;28.38;;
51686;SDS011;37774;52.192;4.584;2022-11-15T04:06:05;89.13;;;27.90;;
51686;SDS011;37774;52.192;4.584;2022-11-15T04:08:33;92.68;;;27.92;;
51686;SDS011;37774;52.192;4.584;2022-11-15T04:11:00;84.13;;;27.50;;
51686;SDS011;37774;52.192;4.584;2022-11-15T04:13:26;92.05;;;30.73;;
51686;SDS011;37774;52.192;4.584;2022-11-15T04:15:53;87.65;;;27.60;;
51686;SDS011;37774;52.192;4.584;2022-11-15T04:18:19;78.75;;;26.33;;
51686;SDS011;37774;52.192;4.584;2022-11-15T04:20:46;88.70;;;24.95;;
51686;SDS011;37774;52.192;4.584;2022-11-15T04:23:29;90.85;;;27.25;;
51686;SDS011;37774;52.192;4.584;2022-11-15T04:26:15;80.03;;;26.15;;
51686;SDS011;37774;52.192;4.584;2022-11-15T04:28:42;88.63;;;24.98;;
51686;SDS011;37774;52.192;4.584;2022-11-15T04:31:23;70.07;;;24.90;;
51686;SDS011;37774;52.192;4.584;2022-11-15T04:33:50;97.63;;;26.80;;
51686;SDS011;37774;52.192;4.584;2022-11-15T04:36:16;70.88;;;23.00;;
51686;SDS011;37774;52.192;4.584;2022-11-15T04:39:00;77.35;;;24.95;;
51686;SDS011;37774;52.192;4.584;2022-11-15T04:41:28;66.82;;;23.08;;
51686;SDS011;37774;52.192;4.584;2022-11-15T04:43:55;64.80;;;22.08;;
51686;SDS011;37774;52.192;4.584;2022-11-15T04:46:21;72.43;;;24.10;;
51686;SDS011;37774;52.192;4.584;2022-11-15T04:48:48;75.10;;;23.05;;
51686;SDS011;37774;52.192;4.584;2022-11-15T04:51:15;57.00;;;22.35;;
51686;SDS011;37774;52.192;4.584;2022-11-15T04:53:41;60.58;;;22.10;;
51686;SDS011;37774;52.192;4.584;2022-11-15T04:56:08;57.08;;;22.08;;
51686;SDS011;37774;52.192;4.584;2022-11-15T04:58:36;60.83;;;22.67;;
51686;SDS011;37774;52.192;4.584;2022-11-15T05:01:06;71.43;;;22.63;;
51686;SDS011;37774;52.192;4.584;2022-11-15T05:03:32;62.95;;;20.75;;
51686;SDS011;37774;52.192;4.584;2022-11-15T05:06:16;72.13;;;23.67;;
51686;SDS011;37774;52.192;4.584;2022-11-15T05:08:43;57.63;;;21.10;;
51686;SDS011;37774;52.192;4.584;2022-11-15T05:11:09;56.72;;;21.92;;
51686;SDS011;37774;52.192;4.584;2022-11-15T05:13:37;60.55;;;22.77;;
51686;SDS011;37774;52.192;4.584;2022-11-15T05:16:04;63.85;;;21.48;;
51686;SDS011;37774;52.192;4.584;2022-11-15T05:18:30;60.95;;;22.08;;
51686;SDS011;37774;52.192;4.584;2022-11-15T05:21:02;61.60;;;21.00;;
51686;SDS011;37774;52.192;4.584;2022-11-15T05:23:28;53.92;;;19.88;;
51686;SDS011;37774;52.192;4.584;2022-11-15T05:25:58;50.53;;;17.73;;
51686;SDS011;37774;52.192;4.584;2022-11-15T05:28:24;53.50;;;18.42;;
51686;SDS011;37774;52.192;4.584;2022-11-15T05:30:52;50.63;;;18.42;;
51686;SDS011;37774;52.192;4.584;2022-11-15T05:33:19;48.35;;;17.80;;
51686;SDS011;37774;52.192;4.584;2022-11-15T05:35:46;43.15;;;16.80;;
51686;SDS011;37774;52.192;4.584;2022-11-15T05:38:15;43.83;;;17.17;;
51686;SDS011;37774;52.192;4.584;2022-11-15T05:40:42;47.38;;;16.08;;
51686;SDS011;37774;52.192;4.584;2022-11-15T05:43:08;55.97;;;17.00;;
51686;SDS011;37774;52.192;4.584;2022-11-15T05:45:35;45.92;;;16.80;;
51686;SDS011;37774;52.192;4.584;2022-11-15T05:48:05;49.13;;;16.20;;
51686;SDS011;37774;52.192;4.584;2022-11-15T05:50:32;33.45;;;14.88;;
51686;SDS011;37774;52.192;4.584;2022-11-15T05:52:59;51.90;;;15.43;;
51686;SDS011;37774;52.192;4.584;2022-11-15T05:55:26;43.45;;;15.35;;
51686;SDS011;37774;52.192;4.584;2022-11-15T05:57:53;32.03;;;14.57;;
51686;SDS011;37774;52.192;4.584;2022-11-15T06:00:20;36.00;;;14.27;;
51686;SDS011;37774;52.192;4.584;2022-11-15T06:02:49;40.72;;;13.85;;
51686;SDS011;37774;52.192;4.584;2022-11-15T06:05:17;43.13;;;14.85;;
51686;SDS011;37774;52.192;4.584;2022-11-15T06:07:43;30.52;;;13.00;;
51686;SDS011;37774;52.192;4.584;2022-11-15T06:10:10;34.92;;;13.88;;
51686;SDS011;37774;52.192;4.584;2022-11-15T06:12:37;34.83;;;13.25;;
51686;SDS011;37774;52.192;4.584;2022-11-15T06:15:04;35.83;;;12.95;;
51686;SDS011;37774;52.192;4.584;2022-11-15T06:17:30;35.55;;;14.55;;
51686;SDS011;37774;52.192;4.584;2022-11-15T06:19:57;31.00;;;13.05;;
51686;SDS011;37774;52.192;4.584;2022-11-15T06:22:25;29.75;;;12.95;;
51686;SDS011;37774;52.192;4.584;2022-11-15T06:24:51;38.92;;;13.25;;
51686;SDS011;37774;52.192;4.584;2022-11-15T06:27:18;31.08;;;14.05;;
51686;SDS011;37774;52.192;4.584;2022-11-15T06:29:44;33.30;;;12.02;;
51686;SDS011;37774;52.192;4.584;2022-11-15T06:32:11;44.03;;;13.80;;
51686;SDS011;37774;52.192;4.584;2022-11-15T06:34:37;43.65;;;12.75;;
51686;SDS011;37774;52.192;4.584;2022-11-15T06:37:04;34.10;;;13.60;;
51686;SDS011;37774;52.192;4.584;2022-11-15T06:39:32;29.38;;;14.15;;
51686;SDS011;37774;52.192;4.584;2022-11-15T06:41:58;39.50;;;13.43;;
51686;SDS011;37774;52.192;4.584;2022-11-15T06:44:25;28.33;;;13.32;;
51686;SDS011;37774;52.192;4.584;2022-11-15T06:46:52;31.33;;;12.70;;
51686;SDS011;37774;52.192;4.584;2022-11-15T06:49:18;23.00;;;11.52;;
51686;SDS011;37774;52.192;4.584;2022-11-15T06:51:45;33.42;;;12.50;;
51686;SDS011;37774;52.192;4.584;2022-11-15T06:54:12;32.22;;;13.30;;
51686;SDS011;37774;52.192;4.584;2022-11-15T06:56:39;33.88;;;11.00;;
51686;SDS011;37774;52.192;4.584;2022-11-15T06:59:06;31.48;;;10.93;;
51686;SDS011;37774;52.192;4.584;2022-11-15T07:01:33;33.17;;;11.20;;
51686;SDS011;37774;52.192;4.584;2022-11-15T07:03:59;31.45;;;11.15;;
51686;SDS011;37774;52.192;4.584;2022-11-15T07:06:26;23.15;;;9.90;;
51686;SDS011;37774;52.192;4.584;2022-11-15T07:08:52;22.67;;;9.18;;
51686;SDS011;37774;52.192;4.584;2022-11-15T07:16:30;26.55;;;8.35;;
51686;SDS011;37774;52.192;4.584;2022-11-15T07:19:02;15.75;;;9.10;;
51686;SDS011;37774;52.192;4.584;2022-11-15T07:21:29;21.52;;;7.80;;
51686;SDS011;37774;52.192;4.584;2022-11-15T07:23:55;23.88;;;7.80;;
51686;SDS011;37774;52.192;4.584;2022-11-15T07:26:22;21.90;;;6.55;;
51686;SDS011;37774;52.192;4.584;2022-11-15T07:28:48;29.35;;;6.95;;
51686;SDS011;37774;52.192;4.584;2022-11-15T07:31:15;25.05;;;8.15;;
51686;SDS011;37774;52.192;4.584;2022-11-15T07:33:43;13.80;;;6.25;;
51686;SDS011;37774;52.192;4.584;2022-11-15T07:36:09;14.13;;;6.25;;
51686;SDS011;37774;52.192;4.584;2022-11-15T07:38:36;25.58;;;8.05;;
51686;SDS011;37774;52.192;4.584;2022-11-15T07:41:03;24.25;;;7.05;;
51686;SDS011;37774;52.192;4.584;2022-11-15T07:43:30;22.92;;;7.55;;
51686;SDS011;37774;52.192;4.584;2022-11-15T07:45:58;21.30;;;7.53;;
51686;SDS011;37774;52.192;4.584;2022-11-15T07:48:25;12.55;;;6.80;;
51686;SDS011;37774;52.192;4.584;2022-11-15T07:50:53;18.80;;;6.70;;
51686;SDS011;37774;52.192;4.584;2022-11-15T07:53:20;14.07;;;6.25;;
51686;SDS011;37774;52.192;4.584;2022-11-15T07:55:46;16.00;;;6.38;;
51686;SDS011;37774;52.192;4.584;2022-11-15T07:58:13;15.43;;;5.07;;
51686;SDS011;37774;52.192;4.584;2022-11-15T08:00:39;17.00;;;4.50;;
51686;SDS011;37774;52.192;4.584;2022-11-15T08:03:07;18.30;;;6.85;;
51686;SDS011;37774;52.192;4.584;2022-11-15T08:05:34;25.75;;;6.18;;
51686;SDS011;37774;52.192;4.584;2022-11-15T08:08:02;13.13;;;4.82;;
51686;SDS011;37774;52.192;4.584;2022-11-15T08:10:29;25.02;;;6.13;;
51686;SDS011;37774;52.192;4.584;2022-11-15T08:12:59;14.48;;;5.40;;
51686;SDS011;37774;52.192;4.584;2022-11-15T08:15:25;15.80;;;6.07;;
51686;SDS011;37774;52.192;4.584;2022-11-15T08:17:55;16.48;;;6.30;;
51686;SDS011;37774;52.192;4.584;2022-11-15T08:20:22;28.67;;;5.53;;
51686;SDS011;37774;52.192;4.584;2022-11-15T08:22:49;13.00;;;5.72;;
51686;SDS011;37774;52.192;4.584;2022-11-15T08:25:17;18.23;;;6.13;;
51686;SDS011;37774;52.192;4.584;2022-11-15T08:27:44;19.45;;;6.28;;
51686;SDS011;37774;52.192;4.584;2022-11-15T08:30:11;13.00;;;5.82;;
51686;SDS011;37774;52.192;4.584;2022-11-15T08:32:37;28.25;;;6.25;;
51686;SDS011;37774;52.192;4.584;2022-11-15T08:35:04;15.95;;;6.15;;
51686;SDS011;37774;52.192;4.584;2022-11-15T08:37:31;29.90;;;6.68;;
51686;SDS011;37774;52.192;4.584;2022-11-15T08:39:58;32.67;;;6.82;;
51686;SDS011;37774;52.192;4.584;2022-11-15T08:42:25;24.48;;;6.55;;
51686;SDS011;37774;52.192;4.584;2022-11-15T08:44:52;18.95;;;6.63;;
51686;SDS011;37774;52.192;4.584;2022-11-15T08:47:19;24.70;;;8.65;;
51686;SDS011;37774;52.192;4.584;2022-11-15T08:49:45;21.92;;;8.68;;
51686;SDS011;37774;52.192;4.584;2022-11-15T08:52:12;26.58;;;8.13;;
51686;SDS011;37774;52.192;4.584;2022-11-15T08:54:39;21.80;;;9.13;;
51686;SDS011;37774;52.192;4.584;2022-11-15T08:57:06;31.70;;;9.32;;
51686;SDS011;37774;52.192;4.584;2022-11-15T08:59:35;32.13;;;9.30;;
51686;SDS011;37774;52.192;4.584;2022-11-15T09:02:02;29.42;;;9.30;;
51686;SDS011;37774;52.192;4.584;2022-11-15T09:04:29;28.00;;;9.85;;
51686;SDS011;37774;52.192;4.584;2022-11-15T09:06:55;25.05;;;9.85;;
51686;SDS011;37774;52.192;4.584;2022-11-15T09:09:22;35.03;;;9.68;;
51686;SDS011;37774;52.192;4.584;2022-11-15T09:11:49;41.58;;;10.95;;
51686;SDS011;37774;52.192;4.584;2022-11-15T09:14:15;27.52;;;11.15;;
51686;SDS011;37774;52.192;4.584;2022-11-15T09:16:43;29.63;;;11.23;;
51686;SDS011;37774;52.192;4.584;2022-11-15T09:19:10;30.73;;;9.52;;
51686;SDS011;37774;52.192;4.584;2022-11-15T09:21:36;25.90;;;10.18;;
51686;SDS011;37774;52.192;4.584;2022-11-15T09:24:03;23.85;;;8.75;;
51686;SDS011;37774;52.192;4.584;2022-11-15T09:26:30;27.92;;;8.45;;
51686;SDS011;37774;52.192;4.584;2022-11-15T09:28:56;27.42;;;8.68;;
51686;SDS011;37774;52.192;4.584;2022-11-15T09:31:23;21.48;;;8.52;;
51686;SDS011;37774;52.192;4.584;2022-11-15T09:33:51;20.35;;;8.63;;
51686;SDS011;37774;52.192;4.584;2022-11-15T09:36:17;16.05;;;7.30;;
51686;SDS011;37774;52.192;4.584;2022-11-15T09:38:44;25.60;;;8.60;;
51686;SDS011;37774;52.192;4.584;2022-11-15T09:41:20;23.95;;;8.52;;
51686;SDS011;37774;52.192;4.584;2022-11-15T09:43:50;17.63;;;7.55;;
51686;SDS011;37774;52.192;4.584;2022-11-15T09:46:22;19.23;;;7.95;;
51686;SDS011;37774;52.192;4.584;2022-11-15T09:48:53;19.17;;;8.05;;
51686;SDS011;37774;52.192;4.584;2022-11-15T09:51:23;16.92;;;7.28;;
51686;SDS011;37774;52.192;4.584;2022-11-15T09:53:54;18.88;;;7.03;;
51686;SDS011;37774;52.192;4.584;2022-11-15T09:56:23;14.98;;;5.95;;
51686;SDS011;37774;52.192;4.584;2022-11-15T09:58:54;26.58;;;6.32;;
51686;SDS011;37774;52.192;4.584;2022-11-15T10:01:25;17.27;;;5.20;;
51686;SDS011;37774;52.192;4.584;2022-11-15T10:03:58;17.67;;;6.15;;
51686;SDS011;37774;52.192;4.584;2022-11-15T10:06:26;19.20;;;5.93;;
51686;SDS011;37774;52.192;4.584;2022-11-15T10:08:55;18.65;;;6.40;;
51686;SDS011;37774;52.192;4.584;2022-11-15T10:11:24;9.38;;;5.43;;
51686;SDS011;37774;52.192;4.584;2022-11-15T10:13:52;12.75;;;5.85;;
51686;SDS011;37774;52.192;4.584;2022-11-15T10:16:24;11.65;;;5.50;;
51686;SDS011;37774;52.192;4.584;2022-11-15T10:18:55;20.13;;;6.15;;
51686;SDS011;37774;52.192;4.584;2022-11-15T10:21:29;18.45;;;5.85;;
51686;SDS011;37774;52.192;4.584;2022-11-15T10:23:58;17.70;;;5.55;;
51686;SDS011;37774;52.192;4.584;2022-11-15T10:26:25;15.77;;;5.07;;
51686;SDS011;37774;52.192;4.584;2022-11-15T10:28:52;17.70;;;6.25;;
51686;SDS011;37774;52.192;4.584;2022-11-15T10:31:22;12.77;;;4.78;;
51686;SDS011;37774;52.192;4.584;2022-11-15T10:33:48;16.83;;;5.15;;
51686;SDS011;37774;52.192;4.584;2022-11-15T10:36:19;13.43;;;4.97;;
51686;SDS011;37774;52.192;4.584;2022-11-15T10:38:57;12.85;;;4.70;;
51686;SDS011;37774;52.192;4.584;2022-11-15T10:41:32;10.40;;;4.97;;
51686;SDS011;37774;52.192;4.584;2022-11-15T10:46:44;9.95;;;4.20;;
51686;SDS011;37774;52.192;4.584;2022-11-15T10:49:14;12.95;;;4.68;;
51686;SDS011;37774;52.192;4.584;2022-11-15T10:51:41;10.73;;;3.55;;
51686;SDS011;37774;52.192;4.584;2022-11-15T10:54:11;8.75;;;3.33;;
51686;SDS011;37774;52.192;4.584;2022-11-15T10:56:38;7.40;;;2.65;;
51686;SDS011;37774;52.192;4.584;2022-11-15T10:59:09;6.57;;;3.83;;
51686;SDS011;37774;52.192;4.584;2022-11-15T11:01:45;8.10;;;3.33;;
51686;SDS011;37774;52.192;4.584;2022-11-15T11:04:12;12.63;;;3.08;;
51686;SDS011;37774;52.192;4.584;2022-11-15T11:06:45;13.50;;;3.42;;
51686;SDS011;37774;52.192;4.584;2022-11-15T11:09:20;9.32;;;3.33;;
51686;SDS011;37774;52.192;4.584;2022-11-15T11:11:48;7.72;;;3.60;;
51686;SDS011;37774;52.192;4.584;2022-11-15T11:16:44;9.75;;;2.97;;
51686;SDS011;37774;52.192;4.584;2022-11-15T11:19:29;15.90;;;3.17;;
51686;SDS011;37774;52.192;4.584;2022-11-15T11:21:58;9.98;;;3.30;;
51686;SDS011;37774;52.192;4.584;2022-11-15T11:24:30;5.60;;;2.40;;
51686;SDS011;37774;52.192;4.584;2022-11-15T11:27:03;13.15;;;2.75;;
51686;SDS011;37774;52.192;4.584;2022-11-15T11:29:38;3.75;;;2.28;;
51686;SDS011;37774;52.192;4.584;2022-11-15T11:32:13;14.48;;;3.05;;
51686;SDS011;37774;52.192;4.584;2022-11-15T11:34:46;4.90;;;2.22;;
51686;SDS011;37774;52.192;4.584;2022-11-15T11:37:17;6.18;;;2.22;;
51686;SDS011;37774;52.192;4.584;2022-11-15T11:39:51;7.30;;;2.20;;
51686;SDS011;37774;52.192;4.584;2022-11-15T11:42:24;10.88;;;2.30;;
51686;SDS011;37774;52.192;4.584;2022-11-15T11:44:54;4.20;;;2.10;;
51686;SDS011;37774;52.192;4.584;2022-11-15T11:47:30;9.63;;;2.15;;
51686;SDS011;37774;52.192;4.584;2022-11-15T11:49:59;11.02;;;2.28;;
51686;SDS011;37774;52.192;4.584;2022-11-15T11:52:28;4.40;;;1.80;;
51686;SDS011;37774;52.192;4.584;2022-11-15T11:55:00;7.85;;;1.92;;
51686;SDS011;37774;52.192;4.584;2022-11-15T11:57:30;4.28;;;1.58;;
51686;SDS011;37774;52.192;4.584;2022-11-15T12:00:00;5.63;;;2.30;;
51686;SDS011;37774;52.192;4.584;2022-11-15T12:02:31;6.35;;;1.95;;
51686;SDS011;37774;52.192;4.584;2022-11-15T12:05:01;4.53;;;1.80;;
51686;SDS011;37774;52.192;4.584;2022-11-15T12:07:29;7.22;;;2.42;;
51686;SDS011;37774;52.192;4.584;2022-11-15T12:09:58;9.50;;;2.10;;
51686;SDS011;37774;52.192;4.584;2022-11-15T12:12:27;8.20;;;1.80;;
51686;SDS011;37774;52.192;4.584;2022-11-15T12:14:57;7.63;;;1.50;;
51686;SDS011;37774;52.192;4.584;2022-11-15T12:17:25;4.22;;;1.20;;
51686;SDS011;37774;52.192;4.584;2022-11-15T12:19:52;3.88;;;1.30;;
51686;SDS011;37774;52.192;4.584;2022-11-15T12:22:22;4.03;;;1.27;;
51686;SDS011;37774;52.192;4.584;2022-11-15T12:24:51;8.10;;;1.67;;
51686;SDS011;37774;52.192;4.584;2022-11-15T12:27:24;9.65;;;1.30;;
51686;SDS011;37774;52.192;4.584;2022-11-15T12:29:55;11.80;;;1.42;;
51686;SDS011;37774;52.192;4.584;2022-11-15T12:32:25;4.38;;;1.55;;
51686;SDS011;37774;52.192;4.584;2022-11-15T12:34:53;7.25;;;0.98;;
51686;SDS011;37774;52.192;4.584;2022-11-15T12:37:32;12.65;;;1.40;;
51686;SDS011;37774;52.192;4.584;2022-11-15T12:40:17;8.40;;;2.10;;
51686;SDS011;37774;52.192;4.584;2022-11-15T12:42:56;7.70;;;1.00;;
51686;SDS011;37774;52.192;4.584;2022-11-15T12:45:25;5.22;;;1.13;;
51686;SDS011;37774;52.192;4.584;2022-11-15T12:47:52;2.17;;;1.10;;
51686;SDS011;37774;52.192;4.584;2022-11-15T12:55:46;4.85;;;1.45;;
51686;SDS011;37774;52.192;4.584;2022-11-15T12:58:40;2.95;;;1.05;;
51686;SDS011;37774;52.192;4.584;2022-11-15T13:01:07;5.18;;;1.52;;
51686;SDS011;37774;52.192;4.584;2022-11-15T13:03:34;6.45;;;1.42;;
51686;SDS011;37774;52.192;4.584;2022-11-15T13:06:02;6.45;;;0.68;;
51686;SDS011;37774;52.192;4.584;2022-11-15T13:08:36;8.23;;;1.05;;
51686;SDS011;37774;52.192;4.584;2022-11-15T13:13:46;4.45;;;1.10;;
51686;SDS011;37774;52.192;4.584;2022-11-15T13:16:16;12.32;;;0.95;;
51686;SDS011;37774;52.192;4.584;2022-11-15T13:18:44;2.50;;;0.70;;
51686;SDS011;37774;52.192;4.584;2022-11-15T13:21:20;7.13;;;1.20;;
51686;SDS011;37774;52.192;4.584;2022-11-15T13:24:05;8.65;;;1.10;;
51686;SDS011;37774;52.192;4.584;2022-11-15T13:26:37;8.88;;;1.48;;
51686;SDS011;37774;52.192;4.584;2022-11-15T13:29:12;9.48;;;1.05;;
51686;SDS011;37774;52.192;4.584;2022-11-15T13:31:41;13.75;;;1.25;;
51686;SDS011;37774;52.192;4.584;2022-11-15T13:34:16;5.97;;;1.08;;
51686;SDS011;37774;52.192;4.584;2022-11-15T13:36:44;5.60;;;0.93;;
51686;SDS011;37774;52.192;4.584;2022-11-15T13:39:12;8.88;;;1.30;;
51686;SDS011;37774;52.192;4.584;2022-11-15T13:41:45;6.30;;;1.00;;
51686;SDS011;37774;52.192;4.584;2022-11-15T13:44:20;4.18;;;0.77;;
51686;SDS011;37774;52.192;4.584;2022-11-15T13:46:47;4.05;;;0.73;;
51686;SDS011;37774;52.192;4.584;2022-11-15T13:49:13;8.70;;;0.80;;
51686;SDS011;37774;52.192;4.584;2022-11-15T13:51:42;4.70;;;0.90;;
51686;SDS011;37774;52.192;4.584;2022-11-15T13:54:13;1.85;;;0.63;;
51686;SDS011;37774;52.192;4.584;2022-11-15T13:56:42;7.43;;;1.52;;
51686;SDS011;37774;52.192;4.584;2022-11-15T13:59:10;4.25;;;0.93;;
51686;SDS011;37774;52.192;4.584;2022-11-15T14:01:39;3.60;;;0.70;;
51686;SDS011;37774;52.192;4.584;2022-11-15T14:04:10;5.32;;;0.90;;
51686;SDS011;37774;52.192;4.584;2022-11-15T14:06:42;5.10;;;0.80;;
51686;SDS011;37774;52.192;4.584;2022-11-15T14:14:45;5.40;;;0.55;;
51686;SDS011;37774;52.192;4.584;2022-11-15T14:17:19;7.53;;;0.80;;
51686;SDS011;37774;52.192;4.584;2022-11-15T14:19:46;4.55;;;0.70;;
51686;SDS011;37774;52.192;4.584;2022-11-15T14:22:14;7.25;;;1.05;;
51686;SDS011;37774;52.192;4.584;2022-11-15T14:24:42;3.97;;;1.00;;
51686;SDS011;37774;52.192;4.584;2022-11-15T14:27:16;6.68;;;1.15;;
51686;SDS011;37774;52.192;4.584;2022-11-15T14:29:42;7.57;;;0.90;;
51686;SDS011;37774;52.192;4.584;2022-11-15T14:32:12;3.78;;;0.93;;
51686;SDS011;37774;52.192;4.584;2022-11-15T14:34:40;3.88;;;1.00;;
51686;SDS011;37774;52.192;4.584;2022-11-15T14:37:09;6.40;;;0.68;;
51686;SDS011;37774;52.192;4.584;2022-11-15T14:39:39;2.45;;;0.80;;
51686;SDS011;37774;52.192;4.584;2022-11-15T14:42:08;9.00;;;0.70;;
51686;SDS011;37774;52.192;4.584;2022-11-15T14:44:35;3.10;;;0.50;;
51686;SDS011;37774;52.192;4.584;2022-11-15T14:47:01;4.95;;;0.95;;
51686;SDS011;37774;52.192;4.584;2022-11-15T14:49:28;3.75;;;0.50;;
51686;SDS011;37774;52.192;4.584;2022-11-15T14:51:56;4.40;;;0.88;;
51686;SDS011;37774;52.192;4.584;2022-11-15T14:54:22;3.60;;;0.60;;
51686;SDS011;37774;52.192;4.584;2022-11-15T14:56:49;1.85;;;0.80;;
51686;SDS011;37774;52.192;4.584;2022-11-15T14:59:16;1.42;;;0.70;;
51686;SDS011;37774;52.192;4.584;2022-11-15T15:01:42;6.53;;;0.75;;
51686;SDS011;37774;52.192;4.584;2022-11-15T15:04:09;4.43;;;1.08;;
51686;SDS011;37774;52.192;4.584;2022-11-15T15:06:36;1.95;;;0.50;;